sensor_id;sensor_type;location;lat;lon;timestamp;temperature;humidity
60868;DHT22;46702;48.370;10.794;2023-09-12T00:01:05;16.60;99.90
60868;DHT22;46702;48.370;10.794;2023-09-12T00:03:32;16.60;99.90
60868;DHT22;46702;48.370;10.794;2023-09-12T00:05:59;16.60;99.90
60868;DHT22;46702;48.370;10.794;2023-09-12T00:08:26;16.60;99.90
60868;DHT22;46702;48.370;10.794;2023-09-12T00:11:06;16.50;99.90
60868;DHT22;46702;48.370;10.794;2023-09-12T00:13:36;16.50;99.90
60868;DHT22;46702;48.370;10.794;2023-09-12T00:16:02;16.50;99.90
60868;DHT22;46702;48.370;10.794;2023-09-12T00:18:28;16.30;99.90
60868;DHT22;46702;48.370;10.794;2023-09-12T00:20:54;16.20;99.90
60868;DHT22;46702;48.370;10.794;2023-09-12T00:23:21;16.20;99.90
60868;DHT22;46702;48.370;10.794;2023-09-12T00:25:47;15.90;99.90
60868;DHT22;46702;48.370;10.794;2023-09-12T00:28:13;15.90;99.90
60868;DHT22;46702;48.370;10.794;2023-09-12T00:30:38;15.90;99.90
60868;DHT22;46702;48.370;10.794;2023-09-12T00:33:04;16.00;99.90
60868;DHT22;46702;48.370;10.794;2023-09-12T00:35:30;15.80;99.90
60868;DHT22;46702;48.370;10.794;2023-09-12T00:37:56;15.80;99.90
60868;DHT22;46702;48.370;10.794;2023-09-12T00:40:22;15.70;99.90
60868;DHT22;46702;48.370;10.794;2023-09-12T00:42:47;15.70;99.90
60868;DHT22;46702;48.370;10.794;2023-09-12T00:45:13;15.70;99.90
60868;DHT22;46702;48.370;10.794;2023-09-12T00:47:38;15.70;99.90
60868;DHT22;46702;48.370;10.794;2023-09-12T00:50:05;15.70;99.90
60868;DHT22;46702;48.370;10.794;2023-09-12T00:52:33;15.60;99.90
60868;DHT22;46702;48.370;10.794;2023-09-12T00:55:01;15.50;99.90
60868;DHT22;46702;48.370;10.794;2023-09-12T00:57:27;15.50;99.90
60868;DHT22;46702;48.370;10.794;2023-09-12T00:59:53;15.60;99.90
60868;DHT22;46702;48.370;10.794;2023-09-12T01:02:19;15.50;99.90
60868;DHT22;46702;48.370;10.794;2023-09-12T01:04:46;15.60;99.90
60868;DHT22;46702;48.370;10.794;2023-09-12T01:07:13;15.70;99.90
60868;DHT22;46702;48.370;10.794;2023-09-12T01:09:40;15.70;99.90
60868;DHT22;46702;48.370;10.794;2023-09-12T01:12:06;15.80;99.90
60868;DHT22;46702;48.370;10.794;2023-09-12T01:14:33;15.80;99.90
60868;DHT22;46702;48.370;10.794;2023-09-12T01:17:00;15.80;99.90
60868;DHT22;46702;48.370;10.794;2023-09-12T01:19:29;15.80;99.90
60868;DHT22;46702;48.370;10.794;2023-09-12T01:27:44;15.80;99.90
60868;DHT22;46702;48.370;10.794;2023-09-12T01:30:12;15.70;99.90
60868;DHT22;46702;48.370;10.794;2023-09-12T01:32:40;15.60;99.90
60868;DHT22;46702;48.370;10.794;2023-09-12T01:35:07;15.50;99.90
60868;DHT22;46702;48.370;10.794;2023-09-12T01:37:34;15.50;99.90
60868;DHT22;46702;48.370;10.794;2023-09-12T01:40:01;15.60;99.90
60868;DHT22;46702;48.370;10.794;2023-09-12T01:42:35;15.60;99.90
60868;DHT22;46702;48.370;10.794;2023-09-12T01:45:04;15.40;99.90
60868;DHT22;46702;48.370;10.794;2023-09-12T01:47:30;15.20;99.90
60868;DHT22;46702;48.370;10.794;2023-09-12T01:49:59;15.10;99.90
60868;DHT22;46702;48.370;10.794;2023-09-12T01:52:27;15.10;99.90
60868;DHT22;46702;48.370;10.794;2023-09-12T01:54:54;15.10;99.90
60868;DHT22;46702;48.370;10.794;2023-09-12T01:57:21;15.00;99.90
60868;DHT22;46702;48.370;10.794;2023-09-12T01:59:50;15.00;99.90
60868;DHT22;46702;48.370;10.794;2023-09-12T02:02:17;15.10;99.90
60868;DHT22;46702;48.370;10.794;2023-09-12T02:04:58;15.20;99.90
60868;DHT22;46702;48.370;10.794;2023-09-12T02:07:30;15.20;99.90
60868;DHT22;46702;48.370;10.794;2023-09-12T02:09:58;15.20;99.90
60868;DHT22;46702;48.370;10.794;2023-09-12T02:12:24;15.20;99.90
60868;DHT22;46702;48.370;10.794;2023-09-12T02:14:50;15.10;99.90
60868;DHT22;46702;48.370;10.794;2023-09-12T02:17:16;15.10;99.90
60868;DHT22;46702;48.370;10.794;2023-09-12T02:19:43;15.20;99.90
60868;DHT22;46702;48.370;10.794;2023-09-12T02:22:12;15.20;99.90
60868;DHT22;46702;48.370;10.794;2023-09-12T02:24:39;15.20;99.90
60868;DHT22;46702;48.370;10.794;2023-09-12T02:27:05;15.20;99.90
60868;DHT22;46702;48.370;10.794;2023-09-12T02:29:32;15.20;99.90
60868;DHT22;46702;48.370;10.794;2023-09-12T02:31:59;15.20;99.90
60868;DHT22;46702;48.370;10.794;2023-09-12T02:34:25;15.10;99.90
60868;DHT22;46702;48.370;10.794;2023-09-12T02:36:52;15.10;99.90
60868;DHT22;46702;48.370;10.794;2023-09-12T02:39:18;15.10;99.90
60868;DHT22;46702;48.370;10.794;2023-09-12T02:41:44;15.20;99.90
60868;DHT22;46702;48.370;10.794;2023-09-12T02:44:11;15.10;99.90
60868;DHT22;46702;48.370;10.794;2023-09-12T02:46:38;15.10;99.90
60868;DHT22;46702;48.370;10.794;2023-09-12T02:49:04;14.90;99.90
60868;DHT22;46702;48.370;10.794;2023-09-12T02:51:31;14.80;99.90
60868;DHT22;46702;48.370;10.794;2023-09-12T02:53:57;14.80;99.90
60868;DHT22;46702;48.370;10.794;2023-09-12T02:56:24;14.90;99.90
60868;DHT22;46702;48.370;10.794;2023-09-12T02:58:51;14.90;99.90
60868;DHT22;46702;48.370;10.794;2023-09-12T03:01:19;14.90;99.90
60868;DHT22;46702;48.370;10.794;2023-09-12T03:03:49;14.90;99.90
60868;DHT22;46702;48.370;10.794;2023-09-12T03:06:16;14.80;99.90
60868;DHT22;46702;48.370;10.794;2023-09-12T03:08:47;14.80;99.90
60868;DHT22;46702;48.370;10.794;2023-09-12T03:11:16;14.70;99.90
60868;DHT22;46702;48.370;10.794;2023-09-12T03:13:42;14.50;99.90
60868;DHT22;46702;48.370;10.794;2023-09-12T03:16:14;14.30;99.90
60868;DHT22;46702;48.370;10.794;2023-09-12T03:18:40;14.30;99.90
60868;DHT22;46702;48.370;10.794;2023-09-12T03:21:06;14.30;99.90
60868;DHT22;46702;48.370;10.794;2023-09-12T03:23:32;14.30;99.90
60868;DHT22;46702;48.370;10.794;2023-09-12T03:26:05;14.40;99.90
60868;DHT22;46702;48.370;10.794;2023-09-12T03:28:32;14.40;99.90
60868;DHT22;46702;48.370;10.794;2023-09-12T03:31:09;14.50;99.90
60868;DHT22;46702;48.370;10.794;2023-09-12T03:33:40;14.50;99.90
60868;DHT22;46702;48.370;10.794;2023-09-12T03:36:08;14.50;99.90
60868;DHT22;46702;48.370;10.794;2023-09-12T03:38:39;14.60;99.90
60868;DHT22;46702;48.370;10.794;2023-09-12T03:41:05;14.50;99.90
60868;DHT22;46702;48.370;10.794;2023-09-12T03:43:32;14.50;99.90
60868;DHT22;46702;48.370;10.794;2023-09-12T03:45:59;14.50;99.90
60868;DHT22;46702;48.370;10.794;2023-09-12T03:48:26;14.50;99.90
60868;DHT22;46702;48.370;10.794;2023-09-12T03:50:53;14.50;99.90
60868;DHT22;46702;48.370;10.794;2023-09-12T03:53:20;14.40;99.90
60868;DHT22;46702;48.370;10.794;2023-09-12T03:55:47;14.30;99.90
60868;DHT22;46702;48.370;10.794;2023-09-12T03:58:14;14.40;99.90
60868;DHT22;46702;48.370;10.794;2023-09-12T04:00:41;14.40;99.90
60868;DHT22;46702;48.370;10.794;2023-09-12T04:03:07;14.30;99.90
60868;DHT22;46702;48.370;10.794;2023-09-12T04:05:35;14.30;99.90
60868;DHT22;46702;48.370;10.794;2023-09-12T04:08:01;14.40;99.90
60868;DHT22;46702;48.370;10.794;2023-09-12T04:10:28;14.40;99.90
60868;DHT22;46702;48.370;10.794;2023-09-12T04:12:54;14.30;99.90
60868;DHT22;46702;48.370;10.794;2023-09-12T04:15:21;14.30;99.90
60868;DHT22;46702;48.370;10.794;2023-09-12T04:17:47;14.30;99.90
60868;DHT22;46702;48.370;10.794;2023-09-12T04:20:14;14.30;99.90
60868;DHT22;46702;48.370;10.794;2023-09-12T04:22:44;14.30;99.90
60868;DHT22;46702;48.370;10.794;2023-09-12T04:25:11;14.40;99.90
60868;DHT22;46702;48.370;10.794;2023-09-12T04:27:38;14.40;99.90
60868;DHT22;46702;48.370;10.794;2023-09-12T04:30:05;14.40;99.90
60868;DHT22;46702;48.370;10.794;2023-09-12T04:32:32;14.30;99.90
60868;DHT22;46702;48.370;10.794;2023-09-12T04:34:58;14.30;99.90
60868;DHT22;46702;48.370;10.794;2023-09-12T04:37:24;14.30;99.90
60868;DHT22;46702;48.370;10.794;2023-09-12T04:39:49;14.40;99.90
60868;DHT22;46702;48.370;10.794;2023-09-12T04:42:15;14.40;99.90
60868;DHT22;46702;48.370;10.794;2023-09-12T04:44:41;14.30;99.90
60868;DHT22;46702;48.370;10.794;2023-09-12T04:47:07;14.30;99.90
60868;DHT22;46702;48.370;10.794;2023-09-12T04:49:33;14.30;99.90
60868;DHT22;46702;48.370;10.794;2023-09-12T04:51:59;14.30;99.90
60868;DHT22;46702;48.370;10.794;2023-09-12T04:54:25;14.30;99.90
60868;DHT22;46702;48.370;10.794;2023-09-12T04:56:50;14.10;99.90
60868;DHT22;46702;48.370;10.794;2023-09-12T04:59:16;14.10;99.90
60868;DHT22;46702;48.370;10.794;2023-09-12T05:01:42;14.10;99.90
60868;DHT22;46702;48.370;10.794;2023-09-12T05:04:08;14.10;99.90
60868;DHT22;46702;48.370;10.794;2023-09-12T05:06:35;14.00;99.90
60868;DHT22;46702;48.370;10.794;2023-09-12T05:09:01;14.00;99.90
60868;DHT22;46702;48.370;10.794;2023-09-12T05:11:26;14.00;99.90
60868;DHT22;46702;48.370;10.794;2023-09-12T05:13:52;14.10;99.90
60868;DHT22;46702;48.370;10.794;2023-09-12T05:16:18;14.10;99.90
60868;DHT22;46702;48.370;10.794;2023-09-12T05:18:44;14.10;99.90
60868;DHT22;46702;48.370;10.794;2023-09-12T05:21:09;14.10;99.90
60868;DHT22;46702;48.370;10.794;2023-09-12T05:23:35;14.10;99.90
60868;DHT22;46702;48.370;10.794;2023-09-12T05:26:01;14.10;99.90
60868;DHT22;46702;48.370;10.794;2023-09-12T05:28:26;14.20;99.90
60868;DHT22;46702;48.370;10.794;2023-09-12T05:30:53;14.20;99.90
60868;DHT22;46702;48.370;10.794;2023-09-12T05:33:19;14.20;99.90
60868;DHT22;46702;48.370;10.794;2023-09-12T05:35:48;14.20;99.90
60868;DHT22;46702;48.370;10.794;2023-09-12T05:38:15;14.20;99.90
60868;DHT22;46702;48.370;10.794;2023-09-12T05:40:41;14.30;99.90
60868;DHT22;46702;48.370;10.794;2023-09-12T05:43:08;14.30;99.90
60868;DHT22;46702;48.370;10.794;2023-09-12T05:45:34;14.20;99.90
60868;DHT22;46702;48.370;10.794;2023-09-12T05:48:01;14.20;99.90
60868;DHT22;46702;48.370;10.794;2023-09-12T05:50:29;14.30;99.90
60868;DHT22;46702;48.370;10.794;2023-09-12T05:52:55;14.30;99.90
60868;DHT22;46702;48.370;10.794;2023-09-12T05:55:22;14.40;99.90
60868;DHT22;46702;48.370;10.794;2023-09-12T05:57:51;14.40;99.90
60868;DHT22;46702;48.370;10.794;2023-09-12T06:00:18;14.50;99.90
60868;DHT22;46702;48.370;10.794;2023-09-12T06:02:46;14.50;99.90
60868;DHT22;46702;48.370;10.794;2023-09-12T06:05:13;14.60;99.90
60868;DHT22;46702;48.370;10.794;2023-09-12T06:07:40;14.70;99.90
60868;DHT22;46702;48.370;10.794;2023-09-12T06:10:07;14.80;99.90
60868;DHT22;46702;48.370;10.794;2023-09-12T06:12:34;14.80;99.90
60868;DHT22;46702;48.370;10.794;2023-09-12T06:15:03;14.90;99.90
60868;DHT22;46702;48.370;10.794;2023-09-12T06:17:30;15.10;99.90
60868;DHT22;46702;48.370;10.794;2023-09-12T06:19:57;15.20;99.90
60868;DHT22;46702;48.370;10.794;2023-09-12T06:22:23;15.20;99.90
60868;DHT22;46702;48.370;10.794;2023-09-12T06:24:53;15.30;99.90
60868;DHT22;46702;48.370;10.794;2023-09-12T06:27:19;15.40;99.90
60868;DHT22;46702;48.370;10.794;2023-09-12T06:29:47;15.60;99.90
60868;DHT22;46702;48.370;10.794;2023-09-12T06:32:15;15.70;99.90
60868;DHT22;46702;48.370;10.794;2023-09-12T06:34:42;15.80;99.90
60868;DHT22;46702;48.370;10.794;2023-09-12T06:37:08;15.80;99.90
60868;DHT22;46702;48.370;10.794;2023-09-12T06:39:34;16.00;99.90
60868;DHT22;46702;48.370;10.794;2023-09-12T06:41:59;16.00;99.90
60868;DHT22;46702;48.370;10.794;2023-09-12T06:44:25;16.10;99.90
60868;DHT22;46702;48.370;10.794;2023-09-12T06:46:51;16.20;99.90
60868;DHT22;46702;48.370;10.794;2023-09-12T06:49:16;16.30;99.90
60868;DHT22;46702;48.370;10.794;2023-09-12T06:51:42;16.40;99.90
60868;DHT22;46702;48.370;10.794;2023-09-12T06:54:07;16.50;99.90
60868;DHT22;46702;48.370;10.794;2023-09-12T06:56:33;16.60;99.90
60868;DHT22;46702;48.370;10.794;2023-09-12T06:59:03;16.70;99.90
60868;DHT22;46702;48.370;10.794;2023-09-12T07:01:29;16.80;99.90
60868;DHT22;46702;48.370;10.794;2023-09-12T07:03:55;16.90;99.90
60868;DHT22;46702;48.370;10.794;2023-09-12T07:06:21;16.90;99.90
60868;DHT22;46702;48.370;10.794;2023-09-12T07:08:47;17.00;99.90
60868;DHT22;46702;48.370;10.794;2023-09-12T07:11:13;17.10;99.90
60868;DHT22;46702;48.370;10.794;2023-09-12T07:13:38;17.20;99.90
60868;DHT22;46702;48.370;10.794;2023-09-12T07:16:04;17.40;99.90
60868;DHT22;46702;48.370;10.794;2023-09-12T07:18:31;17.60;99.90
60868;DHT22;46702;48.370;10.794;2023-09-12T07:21:02;17.80;99.90
60868;DHT22;46702;48.370;10.794;2023-09-12T07:23:28;17.90;99.90
60868;DHT22;46702;48.370;10.794;2023-09-12T07:25:54;18.00;99.90
60868;DHT22;46702;48.370;10.794;2023-09-12T07:28:21;18.10;99.90
60868;DHT22;46702;48.370;10.794;2023-09-12T07:30:47;18.30;99.90
60868;DHT22;46702;48.370;10.794;2023-09-12T07:33:12;18.50;99.90
60868;DHT22;46702;48.370;10.794;2023-09-12T07:35:38;18.60;99.90
60868;DHT22;46702;48.370;10.794;2023-09-12T07:38:04;18.70;99.90
60868;DHT22;46702;48.370;10.794;2023-09-12T07:40:29;18.90;99.90
60868;DHT22;46702;48.370;10.794;2023-09-12T07:42:55;19.00;99.90
60868;DHT22;46702;48.370;10.794;2023-09-12T07:45:21;19.20;99.90
60868;DHT22;46702;48.370;10.794;2023-09-12T07:47:47;19.40;99.90
60868;DHT22;46702;48.370;10.794;2023-09-12T07:50:13;19.50;99.90
60868;DHT22;46702;48.370;10.794;2023-09-12T07:52:38;19.70;99.90
60868;DHT22;46702;48.370;10.794;2023-09-12T07:55:04;19.80;99.90
60868;DHT22;46702;48.370;10.794;2023-09-12T07:57:30;20.00;99.90
60868;DHT22;46702;48.370;10.794;2023-09-12T07:59:56;20.30;99.90
60868;DHT22;46702;48.370;10.794;2023-09-12T08:02:22;20.60;99.90
60868;DHT22;46702;48.370;10.794;2023-09-12T08:04:51;20.70;99.90
60868;DHT22;46702;48.370;10.794;2023-09-12T08:07:20;20.90;99.90
60868;DHT22;46702;48.370;10.794;2023-09-12T08:09:54;21.10;99.90
60868;DHT22;46702;48.370;10.794;2023-09-12T08:12:21;21.40;99.90
60868;DHT22;46702;48.370;10.794;2023-09-12T08:14:47;21.60;99.90
60868;DHT22;46702;48.370;10.794;2023-09-12T08:17:14;21.90;99.90
60868;DHT22;46702;48.370;10.794;2023-09-12T08:19:40;22.10;99.90
60868;DHT22;46702;48.370;10.794;2023-09-12T08:22:07;22.20;99.90
60868;DHT22;46702;48.370;10.794;2023-09-12T08:24:33;22.30;99.90
60868;DHT22;46702;48.370;10.794;2023-09-12T08:26:59;22.50;99.90
60868;DHT22;46702;48.370;10.794;2023-09-12T08:29:25;22.60;99.90
60868;DHT22;46702;48.370;10.794;2023-09-12T08:31:51;22.70;99.90
60868;DHT22;46702;48.370;10.794;2023-09-12T08:34:17;22.90;99.90
60868;DHT22;46702;48.370;10.794;2023-09-12T08:36:43;23.10;99.90
60868;DHT22;46702;48.370;10.794;2023-09-12T08:39:13;23.20;99.90
60868;DHT22;46702;48.370;10.794;2023-09-12T08:41:39;23.20;99.90
60868;DHT22;46702;48.370;10.794;2023-09-12T08:44:04;23.40;99.90
60868;DHT22;46702;48.370;10.794;2023-09-12T08:46:31;23.50;99.90
60868;DHT22;46702;48.370;10.794;2023-09-12T08:48:57;23.70;99.90
60868;DHT22;46702;48.370;10.794;2023-09-12T08:51:23;24.00;99.90
60868;DHT22;46702;48.370;10.794;2023-09-12T08:53:53;24.20;99.90
60868;DHT22;46702;48.370;10.794;2023-09-12T08:56:19;24.30;99.90
60868;DHT22;46702;48.370;10.794;2023-09-12T08:58:45;24.40;99.90
60868;DHT22;46702;48.370;10.794;2023-09-12T09:01:13;24.70;99.90
60868;DHT22;46702;48.370;10.794;2023-09-12T09:03:41;24.80;99.90
60868;DHT22;46702;48.370;10.794;2023-09-12T09:06:08;24.80;99.90
60868;DHT22;46702;48.370;10.794;2023-09-12T09:08:34;24.80;99.90
60868;DHT22;46702;48.370;10.794;2023-09-12T09:11:01;24.90;99.90
60868;DHT22;46702;48.370;10.794;2023-09-12T09:13:34;25.00;99.90
60868;DHT22;46702;48.370;10.794;2023-09-12T09:16:17;24.90;99.90
60868;DHT22;46702;48.370;10.794;2023-09-12T09:18:50;25.10;99.90
60868;DHT22;46702;48.370;10.794;2023-09-12T09:21:21;25.30;99.90
60868;DHT22;46702;48.370;10.794;2023-09-12T09:23:50;25.50;99.90
60868;DHT22;46702;48.370;10.794;2023-09-12T09:26:15;25.60;99.90
60868;DHT22;46702;48.370;10.794;2023-09-12T09:28:41;25.60;99.90
60868;DHT22;46702;48.370;10.794;2023-09-12T09:31:13;25.90;99.90
60868;DHT22;46702;48.370;10.794;2023-09-12T09:33:42;25.90;99.90
60868;DHT22;46702;48.370;10.794;2023-09-12T09:36:16;26.10;99.90
60868;DHT22;46702;48.370;10.794;2023-09-12T09:38:42;26.10;99.90
60868;DHT22;46702;48.370;10.794;2023-09-12T09:41:08;26.20;99.90
60868;DHT22;46702;48.370;10.794;2023-09-12T09:43:35;26.10;99.90
60868;DHT22;46702;48.370;10.794;2023-09-12T09:46:02;26.20;99.90
60868;DHT22;46702;48.370;10.794;2023-09-12T09:48:30;26.10;99.90
60868;DHT22;46702;48.370;10.794;2023-09-12T09:51:03;26.20;99.90
60868;DHT22;46702;48.370;10.794;2023-09-12T09:53:30;26.10;99.90
60868;DHT22;46702;48.370;10.794;2023-09-12T09:56:11;25.90;99.90
60868;DHT22;46702;48.370;10.794;2023-09-12T09:58:48;26.00;99.90
60868;DHT22;46702;48.370;10.794;2023-09-12T10:01:28;25.90;99.90
60868;DHT22;46702;48.370;10.794;2023-09-12T10:03:57;25.70;99.90
60868;DHT22;46702;48.370;10.794;2023-09-12T10:06:23;25.60;99.90
60868;DHT22;46702;48.370;10.794;2023-09-12T10:08:53;25.60;99.90
60868;DHT22;46702;48.370;10.794;2023-09-12T10:11:26;25.90;99.90
60868;DHT22;46702;48.370;10.794;2023-09-12T10:13:57;26.10;99.90
60868;DHT22;46702;48.370;10.794;2023-09-12T10:16:30;26.30;99.90
60868;DHT22;46702;48.370;10.794;2023-09-12T10:21:30;26.10;99.90
60868;DHT22;46702;48.370;10.794;2023-09-12T10:23:59;26.20;99.90
60868;DHT22;46702;48.370;10.794;2023-09-12T10:26:26;26.20;99.90
60868;DHT22;46702;48.370;10.794;2023-09-12T10:28:54;26.40;99.90
60868;DHT22;46702;48.370;10.794;2023-09-12T10:31:21;26.30;99.90
60868;DHT22;46702;48.370;10.794;2023-09-12T10:33:49;26.30;99.90
60868;DHT22;46702;48.370;10.794;2023-09-12T10:36:17;26.70;99.90
60868;DHT22;46702;48.370;10.794;2023-09-12T10:38:44;26.70;99.90
60868;DHT22;46702;48.370;10.794;2023-09-12T10:41:14;26.90;99.90
60868;DHT22;46702;48.370;10.794;2023-09-12T10:43:41;26.70;99.90
60868;DHT22;46702;48.370;10.794;2023-09-12T10:46:08;26.80;99.90
60868;DHT22;46702;48.370;10.794;2023-09-12T10:48:37;26.60;99.90
60868;DHT22;46702;48.370;10.794;2023-09-12T10:51:07;26.70;99.90
60868;DHT22;46702;48.370;10.794;2023-09-12T10:53:32;27.10;99.90
60868;DHT22;46702;48.370;10.794;2023-09-12T10:56:14;27.10;99.90
60868;DHT22;46702;48.370;10.794;2023-09-12T11:01:54;27.90;99.90
60868;DHT22;46702;48.370;10.794;2023-09-12T11:06:49;28.00;99.90
60868;DHT22;46702;48.370;10.794;2023-09-12T11:09:23;27.90;99.90
60868;DHT22;46702;48.370;10.794;2023-09-12T11:12:09;27.90;99.90
60868;DHT22;46702;48.370;10.794;2023-09-12T11:15:05;27.80;99.90
60868;DHT22;46702;48.370;10.794;2023-09-12T11:17:37;27.90;99.90
60868;DHT22;46702;48.370;10.794;2023-09-12T11:20:03;28.30;99.90
60868;DHT22;46702;48.370;10.794;2023-09-12T11:22:37;28.50;99.90
60868;DHT22;46702;48.370;10.794;2023-09-12T11:28:02;28.10;99.90
60868;DHT22;46702;48.370;10.794;2023-09-12T11:30:30;28.00;99.90
60868;DHT22;46702;48.370;10.794;2023-09-12T11:32:59;28.40;99.90
60868;DHT22;46702;48.370;10.794;2023-09-12T11:35:29;28.00;99.90
60868;DHT22;46702;48.370;10.794;2023-09-12T11:37:57;28.00;99.90
60868;DHT22;46702;48.370;10.794;2023-09-12T11:40:42;28.30;99.90
60868;DHT22;46702;48.370;10.794;2023-09-12T11:43:27;28.00;99.90
60868;DHT22;46702;48.370;10.794;2023-09-12T11:45:55;28.20;99.90
60868;DHT22;46702;48.370;10.794;2023-09-12T11:48:21;28.50;99.90
60868;DHT22;46702;48.370;10.794;2023-09-12T11:51:07;28.50;99.90
60868;DHT22;46702;48.370;10.794;2023-09-12T11:53:33;28.10;99.90
60868;DHT22;46702;48.370;10.794;2023-09-12T11:56:01;28.40;99.90
60868;DHT22;46702;48.370;10.794;2023-09-12T11:58:26;28.50;99.90
60868;DHT22;46702;48.370;10.794;2023-09-12T12:00:58;28.60;99.90
60868;DHT22;46702;48.370;10.794;2023-09-12T12:03:26;28.30;99.90
60868;DHT22;46702;48.370;10.794;2023-09-12T12:05:54;28.30;99.90
60868;DHT22;46702;48.370;10.794;2023-09-12T12:08:20;28.50;99.90
60868;DHT22;46702;48.370;10.794;2023-09-12T12:10:50;28.60;99.90
60868;DHT22;46702;48.370;10.794;2023-09-12T12:13:17;28.60;99.90
60868;DHT22;46702;48.370;10.794;2023-09-12T12:15:43;28.60;99.90
60868;DHT22;46702;48.370;10.794;2023-09-12T12:18:09;28.40;99.90
60868;DHT22;46702;48.370;10.794;2023-09-12T12:20:35;28.30;99.90
60868;DHT22;46702;48.370;10.794;2023-09-12T12:23:01;28.40;99.90
60868;DHT22;46702;48.370;10.794;2023-09-12T12:25:26;28.60;99.90
60868;DHT22;46702;48.370;10.794;2023-09-12T12:27:57;28.50;99.90
60868;DHT22;46702;48.370;10.794;2023-09-12T12:30:22;28.50;99.90
60868;DHT22;46702;48.370;10.794;2023-09-12T12:32:48;28.80;99.90
60868;DHT22;46702;48.370;10.794;2023-09-12T12:35:21;29.00;99.90
60868;DHT22;46702;48.370;10.794;2023-09-12T12:37:53;29.00;99.90
60868;DHT22;46702;48.370;10.794;2023-09-12T12:40:19;29.00;99.90
60868;DHT22;46702;48.370;10.794;2023-09-12T12:42:45;29.00;99.90
60868;DHT22;46702;48.370;10.794;2023-09-12T12:47:38;28.90;99.90
60868;DHT22;46702;48.370;10.794;2023-09-12T12:50:08;29.10;99.90
60868;DHT22;46702;48.370;10.794;2023-09-12T12:52:35;29.20;99.90
60868;DHT22;46702;48.370;10.794;2023-09-12T12:55:07;29.30;99.90
60868;DHT22;46702;48.370;10.794;2023-09-12T12:57:39;29.30;99.90
60868;DHT22;46702;48.370;10.794;2023-09-12T13:00:13;29.40;99.90
60868;DHT22;46702;48.370;10.794;2023-09-12T13:02:40;29.20;99.90
60868;DHT22;46702;48.370;10.794;2023-09-12T13:05:27;28.90;99.90
60868;DHT22;46702;48.370;10.794;2023-09-12T13:07:54;28.80;99.90
60868;DHT22;46702;48.370;10.794;2023-09-12T13:10:20;28.80;99.90
60868;DHT22;46702;48.370;10.794;2023-09-12T13:12:47;28.90;99.90
60868;DHT22;46702;48.370;10.794;2023-09-12T13:15:13;29.20;99.90
60868;DHT22;46702;48.370;10.794;2023-09-12T13:17:40;29.20;99.90
60868;DHT22;46702;48.370;10.794;2023-09-12T13:20:07;29.20;99.90
60868;DHT22;46702;48.370;10.794;2023-09-12T13:22:34;29.50;99.90
60868;DHT22;46702;48.370;10.794;2023-09-12T13:25:00;29.40;99.90
60868;DHT22;46702;48.370;10.794;2023-09-12T13:27:25;29.30;99.90
60868;DHT22;46702;48.370;10.794;2023-09-12T13:29:51;29.50;99.90
60868;DHT22;46702;48.370;10.794;2023-09-12T13:32:17;29.50;99.90
60868;DHT22;46702;48.370;10.794;2023-09-12T13:34:44;29.50;99.90
60868;DHT22;46702;48.370;10.794;2023-09-12T13:37:10;29.40;99.90
60868;DHT22;46702;48.370;10.794;2023-09-12T13:39:36;29.40;99.90
60868;DHT22;46702;48.370;10.794;2023-09-12T13:42:01;29.30;99.90
60868;DHT22;46702;48.370;10.794;2023-09-12T13:44:29;29.40;99.90
60868;DHT22;46702;48.370;10.794;2023-09-12T13:46:55;29.50;99.90
60868;DHT22;46702;48.370;10.794;2023-09-12T13:49:21;29.60;99.90
60868;DHT22;46702;48.370;10.794;2023-09-12T13:51:47;29.70;99.90
60868;DHT22;46702;48.370;10.794;2023-09-12T13:54:12;29.80;99.90
60868;DHT22;46702;48.370;10.794;2023-09-12T13:56:46;29.90;99.90
60868;DHT22;46702;48.370;10.794;2023-09-12T13:59:11;30.00;99.90
60868;DHT22;46702;48.370;10.794;2023-09-12T14:01:37;30.20;99.90
60868;DHT22;46702;48.370;10.794;2023-09-12T14:04:03;30.20;99.90
60868;DHT22;46702;48.370;10.794;2023-09-12T14:06:29;30.20;99.90
60868;DHT22;46702;48.370;10.794;2023-09-12T14:08:55;30.20;99.90
60868;DHT22;46702;48.370;10.794;2023-09-12T14:11:21;30.30;99.90
60868;DHT22;46702;48.370;10.794;2023-09-12T14:13:47;30.00;99.90
60868;DHT22;46702;48.370;10.794;2023-09-12T14:16:13;29.90;99.90
60868;DHT22;46702;48.370;10.794;2023-09-12T14:18:39;29.70;99.90
60868;DHT22;46702;48.370;10.794;2023-09-12T14:21:04;29.40;99.90
60868;DHT22;46702;48.370;10.794;2023-09-12T14:23:30;29.10;99.90
60868;DHT22;46702;48.370;10.794;2023-09-12T14:25:55;29.20;99.90
60868;DHT22;46702;48.370;10.794;2023-09-12T14:28:21;29.20;99.90
60868;DHT22;46702;48.370;10.794;2023-09-12T14:30:47;29.30;99.90
60868;DHT22;46702;48.370;10.794;2023-09-12T14:33:14;29.40;99.90
60868;DHT22;46702;48.370;10.794;2023-09-12T14:35:40;29.50;99.90
60868;DHT22;46702;48.370;10.794;2023-09-12T14:38:07;29.50;99.90
60868;DHT22;46702;48.370;10.794;2023-09-12T14:40:33;29.40;99.90
60868;DHT22;46702;48.370;10.794;2023-09-12T14:42:59;29.50;99.90
60868;DHT22;46702;48.370;10.794;2023-09-12T14:45:25;29.40;99.90
60868;DHT22;46702;48.370;10.794;2023-09-12T14:47:51;29.40;99.90
60868;DHT22;46702;48.370;10.794;2023-09-12T14:50:16;29.50;99.90
60868;DHT22;46702;48.370;10.794;2023-09-12T14:52:42;29.40;99.90
60868;DHT22;46702;48.370;10.794;2023-09-12T14:55:08;29.40;99.90
60868;DHT22;46702;48.370;10.794;2023-09-12T14:57:35;29.40;99.90
60868;DHT22;46702;48.370;10.794;2023-09-12T15:00:00;29.30;99.90
60868;DHT22;46702;48.370;10.794;2023-09-12T15:02:26;29.30;99.90
60868;DHT22;46702;48.370;10.794;2023-09-12T15:04:58;29.30;99.90
60868;DHT22;46702;48.370;10.794;2023-09-12T15:07:24;29.20;99.90
60868;DHT22;46702;48.370;10.794;2023-09-12T15:09:50;29.10;99.90
60868;DHT22;46702;48.370;10.794;2023-09-12T15:12:16;29.20;99.90
60868;DHT22;46702;48.370;10.794;2023-09-12T15:14:42;29.20;99.90
60868;DHT22;46702;48.370;10.794;2023-09-12T15:17:07;29.20;99.90
60868;DHT22;46702;48.370;10.794;2023-09-12T15:19:33;29.20;99.90
60868;DHT22;46702;48.370;10.794;2023-09-12T15:21:59;29.30;99.90
60868;DHT22;46702;48.370;10.794;2023-09-12T15:24:24;29.30;99.90
60868;DHT22;46702;48.370;10.794;2023-09-12T15:26:52;29.30;99.90
60868;DHT22;46702;48.370;10.794;2023-09-12T15:29:17;29.10;99.90
60868;DHT22;46702;48.370;10.794;2023-09-12T15:31:43;28.90;99.90
60868;DHT22;46702;48.370;10.794;2023-09-12T15:34:09;28.70;99.90
60868;DHT22;46702;48.370;10.794;2023-09-12T15:36:47;28.50;99.90